sensor_id;sensor_type;location;lat;lon;timestamp;P1;durP1;ratioP1;P2;durP2;ratioP2
80185;SDS011;69904;52.122;5.422;2023-07-13T00:00:09;7.95;;;1.35;;
80185;SDS011;69904;52.122;5.422;2023-07-13T00:02:36;5.25;;;1.13;;
80185;SDS011;69904;52.122;5.422;2023-07-13T00:05:02;4.35;;;1.35;;
80185;SDS011;69904;52.122;5.422;2023-07-13T00:07:29;4.60;;;1.10;;
80185;SDS011;69904;52.122;5.422;2023-07-13T00:09:57;4.68;;;0.95;;
80185;SDS011;69904;52.122;5.422;2023-07-13T00:12:27;6.63;;;1.20;;
80185;SDS011;69904;52.122;5.422;2023-07-13T00:14:59;5.53;;;1.17;;
80185;SDS011;69904;52.122;5.422;2023-07-13T00:17:27;7.68;;;1.45;;
80185;SDS011;69904;52.122;5.422;2023-07-13T00:19:55;5.55;;;1.13;;
80185;SDS011;69904;52.122;5.422;2023-07-13T00:22:22;6.00;;;0.98;;
80185;SDS011;69904;52.122;5.422;2023-07-13T00:24:52;3.17;;;1.00;;
80185;SDS011;69904;52.122;5.422;2023-07-13T00:27:21;4.38;;;1.00;;
80185;SDS011;69904;52.122;5.422;2023-07-13T00:29:49;3.05;;;0.93;;
80185;SDS011;69904;52.122;5.422;2023-07-13T00:32:15;6.38;;;1.02;;
80185;SDS011;69904;52.122;5.422;2023-07-13T00:34:42;3.70;;;0.90;;
80185;SDS011;69904;52.122;5.422;2023-07-13T00:37:09;7.90;;;1.20;;
80185;SDS011;69904;52.122;5.422;2023-07-13T00:39:37;2.30;;;0.68;;
80185;SDS011;69904;52.122;5.422;2023-07-13T00:42:05;4.78;;;1.10;;
80185;SDS011;69904;52.122;5.422;2023-07-13T00:44:32;7.43;;;1.10;;
80185;SDS011;69904;52.122;5.422;2023-07-13T00:46:59;2.72;;;0.50;;
80185;SDS011;69904;52.122;5.422;2023-07-13T00:51:56;5.53;;;0.93;;
80185;SDS011;69904;52.122;5.422;2023-07-13T00:54:33;6.30;;;1.25;;
80185;SDS011;69904;52.122;5.422;2023-07-13T00:57:05;3.45;;;1.10;;
80185;SDS011;69904;52.122;5.422;2023-07-13T00:59:35;2.58;;;0.80;;
80185;SDS011;69904;52.122;5.422;2023-07-13T01:02:06;4.05;;;0.95;;
80185;SDS011;69904;52.122;5.422;2023-07-13T01:06:59;4.82;;;1.40;;
80185;SDS011;69904;52.122;5.422;2023-07-13T01:11:53;5.25;;;0.68;;
80185;SDS011;69904;52.122;5.422;2023-07-13T01:14:20;3.92;;;1.00;;
80185;SDS011;69904;52.122;5.422;2023-07-13T01:16:46;5.35;;;0.85;;
80185;SDS011;69904;52.122;5.422;2023-07-13T01:19:33;5.72;;;1.02;;
80185;SDS011;69904;52.122;5.422;2023-07-13T01:22:06;7.85;;;1.70;;
80185;SDS011;69904;52.122;5.422;2023-07-13T01:24:35;1.65;;;0.73;;
80185;SDS011;69904;52.122;5.422;2023-07-13T01:27:02;3.45;;;0.75;;
80185;SDS011;69904;52.122;5.422;2023-07-13T01:29:30;3.15;;;0.77;;
80185;SDS011;69904;52.122;5.422;2023-07-13T01:31:57;4.40;;;1.10;;
80185;SDS011;69904;52.122;5.422;2023-07-13T01:34:23;5.30;;;0.95;;
80185;SDS011;69904;52.122;5.422;2023-07-13T01:36:50;9.10;;;1.35;;
80185;SDS011;69904;52.122;5.422;2023-07-13T01:39:20;3.65;;;0.90;;
80185;SDS011;69904;52.122;5.422;2023-07-13T01:41:48;4.97;;;1.20;;
80185;SDS011;69904;52.122;5.422;2023-07-13T01:44:15;3.83;;;1.30;;
80185;SDS011;69904;52.122;5.422;2023-07-13T01:46:42;3.70;;;0.77;;
80185;SDS011;69904;52.122;5.422;2023-07-13T01:49:09;3.97;;;1.23;;
80185;SDS011;69904;52.122;5.422;2023-07-13T01:51:35;3.90;;;0.95;;
80185;SDS011;69904;52.122;5.422;2023-07-13T01:54:02;3.33;;;0.75;;
80185;SDS011;69904;52.122;5.422;2023-07-13T01:58:55;2.63;;;0.77;;
80185;SDS011;69904;52.122;5.422;2023-07-13T02:01:21;3.90;;;0.90;;
80185;SDS011;69904;52.122;5.422;2023-07-13T02:03:48;5.68;;;0.85;;
80185;SDS011;69904;52.122;5.422;2023-07-13T02:06:14;2.95;;;0.75;;
80185;SDS011;69904;52.122;5.422;2023-07-13T02:08:41;3.33;;;1.10;;
80185;SDS011;69904;52.122;5.422;2023-07-13T02:11:08;6.97;;;0.85;;
80185;SDS011;69904;52.122;5.422;2023-07-13T02:16:03;4.45;;;1.20;;
80185;SDS011;69904;52.122;5.422;2023-07-13T02:18:29;5.15;;;1.27;;
80185;SDS011;69904;52.122;5.422;2023-07-13T02:20:56;5.55;;;1.20;;
80185;SDS011;69904;52.122;5.422;2023-07-13T02:23:22;3.05;;;1.00;;
80185;SDS011;69904;52.122;5.422;2023-07-13T02:25:53;4.50;;;0.93;;
80185;SDS011;69904;52.122;5.422;2023-07-13T02:28:21;4.15;;;1.25;;
80185;SDS011;69904;52.122;5.422;2023-07-13T02:30:47;5.38;;;1.23;;
80185;SDS011;69904;52.122;5.422;2023-07-13T02:33:14;4.00;;;1.30;;
80185;SDS011;69904;52.122;5.422;2023-07-13T02:35:41;5.55;;;1.00;;
80185;SDS011;69904;52.122;5.422;2023-07-13T02:38:08;2.95;;;1.10;;
80185;SDS011;69904;52.122;5.422;2023-07-13T02:40:35;5.60;;;1.20;;
80185;SDS011;69904;52.122;5.422;2023-07-13T02:45:28;6.20;;;1.20;;
80185;SDS011;69904;52.122;5.422;2023-07-13T02:47:55;6.18;;;1.48;;
80185;SDS011;69904;52.122;5.422;2023-07-13T02:50:22;5.40;;;1.35;;
80185;SDS011;69904;52.122;5.422;2023-07-13T02:52:48;3.47;;;1.20;;
80185;SDS011;69904;52.122;5.422;2023-07-13T02:55:15;8.35;;;1.48;;
80185;SDS011;69904;52.122;5.422;2023-07-13T02:57:41;3.78;;;1.25;;
80185;SDS011;69904;52.122;5.422;2023-07-13T03:00:08;4.57;;;1.05;;
80185;SDS011;69904;52.122;5.422;2023-07-13T03:02:35;3.88;;;1.23;;
80185;SDS011;69904;52.122;5.422;2023-07-13T03:05:02;6.63;;;1.20;;
80185;SDS011;69904;52.122;5.422;2023-07-13T03:09:57;8.68;;;1.58;;
80185;SDS011;69904;52.122;5.422;2023-07-13T03:12:24;2.80;;;1.08;;
80185;SDS011;69904;52.122;5.422;2023-07-13T03:14:51;9.88;;;1.45;;
80185;SDS011;69904;52.122;5.422;2023-07-13T03:17:18;5.05;;;1.48;;
80185;SDS011;69904;52.122;5.422;2023-07-13T03:19:44;3.05;;;1.20;;
80185;SDS011;69904;52.122;5.422;2023-07-13T03:22:16;4.63;;;1.63;;
80185;SDS011;69904;52.122;5.422;2023-07-13T03:24:44;2.72;;;0.93;;
80185;SDS011;69904;52.122;5.422;2023-07-13T03:27:11;5.90;;;1.73;;
80185;SDS011;69904;52.122;5.422;2023-07-13T03:32:04;8.35;;;1.67;;
80185;SDS011;69904;52.122;5.422;2023-07-13T03:34:32;5.25;;;1.17;;
80185;SDS011;69904;52.122;5.422;2023-07-13T03:39:25;5.18;;;1.40;;
80185;SDS011;69904;52.122;5.422;2023-07-13T03:41:52;6.55;;;1.20;;
80185;SDS011;69904;52.122;5.422;2023-07-13T03:44:18;6.90;;;2.05;;
80185;SDS011;69904;52.122;5.422;2023-07-13T03:46:45;3.65;;;1.50;;
80185;SDS011;69904;52.122;5.422;2023-07-13T03:49:12;6.18;;;1.70;;
80185;SDS011;69904;52.122;5.422;2023-07-13T03:51:39;5.30;;;1.45;;
80185;SDS011;69904;52.122;5.422;2023-07-13T03:54:05;7.15;;;1.55;;
80185;SDS011;69904;52.122;5.422;2023-07-13T03:56:32;4.90;;;1.33;;
80185;SDS011;69904;52.122;5.422;2023-07-13T03:59:00;8.88;;;1.50;;
80185;SDS011;69904;52.122;5.422;2023-07-13T04:01:26;9.73;;;1.67;;
80185;SDS011;69904;52.122;5.422;2023-07-13T04:03:53;6.10;;;1.88;;
80185;SDS011;69904;52.122;5.422;2023-07-13T04:06:29;5.95;;;1.52;;
80185;SDS011;69904;52.122;5.422;2023-07-13T04:08:58;5.68;;;1.70;;
80185;SDS011;69904;52.122;5.422;2023-07-13T04:11:27;4.25;;;1.50;;
80185;SDS011;69904;52.122;5.422;2023-07-13T04:14:02;7.38;;;1.67;;
80185;SDS011;69904;52.122;5.422;2023-07-13T04:16:35;4.53;;;1.60;;
80185;SDS011;69904;52.122;5.422;2023-07-13T04:19:02;5.28;;;2.08;;
80185;SDS011;69904;52.122;5.422;2023-07-13T04:21:35;7.55;;;2.00;;
80185;SDS011;69904;52.122;5.422;2023-07-13T04:24:06;5.53;;;2.15;;
80185;SDS011;69904;52.122;5.422;2023-07-13T04:26:32;7.03;;;1.83;;
80185;SDS011;69904;52.122;5.422;2023-07-13T04:29:02;6.78;;;1.80;;
80185;SDS011;69904;52.122;5.422;2023-07-13T04:31:30;6.07;;;1.55;;
80185;SDS011;69904;52.122;5.422;2023-07-13T04:33:57;3.15;;;1.33;;
80185;SDS011;69904;52.122;5.422;2023-07-13T04:36:24;3.90;;;1.83;;
80185;SDS011;69904;52.122;5.422;2023-07-13T04:38:53;5.63;;;1.95;;
80185;SDS011;69904;52.122;5.422;2023-07-13T04:41:22;5.13;;;1.92;;
80185;SDS011;69904;52.122;5.422;2023-07-13T04:43:49;5.50;;;2.03;;
80185;SDS011;69904;52.122;5.422;2023-07-13T04:46:16;6.82;;;1.90;;
80185;SDS011;69904;52.122;5.422;2023-07-13T04:48:46;9.00;;;2.17;;
80185;SDS011;69904;52.122;5.422;2023-07-13T04:51:15;3.88;;;1.95;;
80185;SDS011;69904;52.122;5.422;2023-07-13T04:53:42;8.70;;;2.15;;
80185;SDS011;69904;52.122;5.422;2023-07-13T04:56:09;8.70;;;2.25;;
80185;SDS011;69904;52.122;5.422;2023-07-13T04:58:36;5.70;;;2.08;;
80185;SDS011;69904;52.122;5.422;2023-07-13T05:01:03;6.97;;;1.50;;
80185;SDS011;69904;52.122;5.422;2023-07-13T05:03:32;5.18;;;2.40;;
80185;SDS011;69904;52.122;5.422;2023-07-13T05:06:03;6.30;;;2.92;;
80185;SDS011;69904;52.122;5.422;2023-07-13T05:08:31;7.30;;;2.17;;
80185;SDS011;69904;52.122;5.422;2023-07-13T05:11:02;9.02;;;2.60;;
80185;SDS011;69904;52.122;5.422;2023-07-13T05:13:30;7.97;;;1.83;;
80185;SDS011;69904;52.122;5.422;2023-07-13T05:16:03;6.97;;;2.60;;
80185;SDS011;69904;52.122;5.422;2023-07-13T05:18:32;13.43;;;2.53;;
80185;SDS011;69904;52.122;5.422;2023-07-13T05:21:06;6.15;;;2.50;;
80185;SDS011;69904;52.122;5.422;2023-07-13T05:23:35;11.27;;;2.47;;
80185;SDS011;69904;52.122;5.422;2023-07-13T05:26:02;8.18;;;3.15;;
80185;SDS011;69904;52.122;5.422;2023-07-13T05:28:34;4.72;;;2.15;;
80185;SDS011;69904;52.122;5.422;2023-07-13T05:31:03;10.13;;;2.67;;
80185;SDS011;69904;52.122;5.422;2023-07-13T05:33:30;9.23;;;2.85;;
80185;SDS011;69904;52.122;5.422;2023-07-13T05:35:56;12.52;;;3.35;;
80185;SDS011;69904;52.122;5.422;2023-07-13T05:38:23;8.35;;;2.60;;
80185;SDS011;69904;52.122;5.422;2023-07-13T05:40:50;9.05;;;2.97;;
80185;SDS011;69904;52.122;5.422;2023-07-13T05:43:17;6.32;;;3.35;;
80185;SDS011;69904;52.122;5.422;2023-07-13T05:48:10;7.80;;;3.15;;
80185;SDS011;69904;52.122;5.422;2023-07-13T05:50:37;14.77;;;4.00;;
80185;SDS011;69904;52.122;5.422;2023-07-13T05:53:04;12.55;;;4.43;;
80185;SDS011;69904;52.122;5.422;2023-07-13T05:55:31;12.13;;;4.47;;
80185;SDS011;69904;52.122;5.422;2023-07-13T05:57:58;10.73;;;3.75;;
80185;SDS011;69904;52.122;5.422;2023-07-13T06:00:26;14.38;;;4.90;;
80185;SDS011;69904;52.122;5.422;2023-07-13T06:05:19;9.35;;;3.90;;
80185;SDS011;69904;52.122;5.422;2023-07-13T06:07:46;10.07;;;4.22;;
80185;SDS011;69904;52.122;5.422;2023-07-13T06:10:12;11.98;;;4.70;;
80185;SDS011;69904;52.122;5.422;2023-07-13T06:12:39;12.52;;;4.30;;
80185;SDS011;69904;52.122;5.422;2023-07-13T06:15:06;11.77;;;4.65;;
80185;SDS011;69904;52.122;5.422;2023-07-13T06:17:33;11.45;;;4.38;;
80185;SDS011;69904;52.122;5.422;2023-07-13T06:20:00;14.45;;;4.35;;
80185;SDS011;69904;52.122;5.422;2023-07-13T06:22:26;14.45;;;4.82;;
80185;SDS011;69904;52.122;5.422;2023-07-13T06:24:53;8.95;;;4.20;;
80185;SDS011;69904;52.122;5.422;2023-07-13T06:27:19;9.55;;;4.45;;
80185;SDS011;69904;52.122;5.422;2023-07-13T06:29:46;14.32;;;5.47;;
80185;SDS011;69904;52.122;5.422;2023-07-13T06:32:12;14.65;;;5.78;;
80185;SDS011;69904;52.122;5.422;2023-07-13T06:34:39;10.10;;;5.30;;
80185;SDS011;69904;52.122;5.422;2023-07-13T06:37:08;10.40;;;4.80;;
80185;SDS011;69904;52.122;5.422;2023-07-13T06:39:35;11.63;;;5.35;;
80185;SDS011;69904;52.122;5.422;2023-07-13T06:42:02;9.73;;;5.05;;
80185;SDS011;69904;52.122;5.422;2023-07-13T06:46:55;10.77;;;4.38;;
80185;SDS011;69904;52.122;5.422;2023-07-13T06:49:22;13.38;;;5.07;;
80185;SDS011;69904;52.122;5.422;2023-07-13T06:51:48;15.23;;;6.00;;
80185;SDS011;69904;52.122;5.422;2023-07-13T06:54:15;13.75;;;5.68;;
80185;SDS011;69904;52.122;5.422;2023-07-13T06:56:41;12.00;;;6.20;;
80185;SDS011;69904;52.122;5.422;2023-07-13T06:59:08;12.27;;;5.72;;
80185;SDS011;69904;52.122;5.422;2023-07-13T07:01:34;11.75;;;5.45;;
80185;SDS011;69904;52.122;5.422;2023-07-13T07:04:03;14.90;;;5.90;;
80185;SDS011;69904;52.122;5.422;2023-07-13T07:06:30;11.95;;;5.28;;
80185;SDS011;69904;52.122;5.422;2023-07-13T07:08:56;11.50;;;5.45;;
80185;SDS011;69904;52.122;5.422;2023-07-13T07:11:23;10.98;;;5.85;;
80185;SDS011;69904;52.122;5.422;2023-07-13T07:13:52;16.05;;;5.57;;
80185;SDS011;69904;52.122;5.422;2023-07-13T07:16:19;12.98;;;6.13;;
80185;SDS011;69904;52.122;5.422;2023-07-13T07:18:47;11.55;;;6.18;;
80185;SDS011;69904;52.122;5.422;2023-07-13T07:21:14;14.13;;;6.28;;
80185;SDS011;69904;52.122;5.422;2023-07-13T07:26:08;10.82;;;5.70;;
80185;SDS011;69904;52.122;5.422;2023-07-13T07:28:36;11.35;;;5.88;;
80185;SDS011;69904;52.122;5.422;2023-07-13T07:31:05;17.88;;;6.03;;
80185;SDS011;69904;52.122;5.422;2023-07-13T07:33:35;14.48;;;6.45;;
80185;SDS011;69904;52.122;5.422;2023-07-13T07:36:02;9.30;;;5.47;;
80185;SDS011;69904;52.122;5.422;2023-07-13T07:38:32;13.70;;;6.43;;
80185;SDS011;69904;52.122;5.422;2023-07-13T07:41:00;9.82;;;5.30;;
80185;SDS011;69904;52.122;5.422;2023-07-13T07:43:33;15.57;;;5.32;;
80185;SDS011;69904;52.122;5.422;2023-07-13T07:45:59;13.25;;;5.80;;
80185;SDS011;69904;52.122;5.422;2023-07-13T07:48:28;13.73;;;6.75;;
80185;SDS011;69904;52.122;5.422;2023-07-13T07:50:55;13.32;;;6.85;;
80185;SDS011;69904;52.122;5.422;2023-07-13T07:53:21;11.70;;;6.28;;
80185;SDS011;69904;52.122;5.422;2023-07-13T07:55:48;12.80;;;6.03;;
80185;SDS011;69904;52.122;5.422;2023-07-13T07:58:20;15.00;;;6.57;;
80185;SDS011;69904;52.122;5.422;2023-07-13T08:00:50;10.40;;;5.90;;
80185;SDS011;69904;52.122;5.422;2023-07-13T08:03:20;11.93;;;5.75;;
80185;SDS011;69904;52.122;5.422;2023-07-13T08:05:52;12.13;;;5.18;;
80185;SDS011;69904;52.122;5.422;2023-07-13T08:08:39;14.82;;;5.80;;
80185;SDS011;69904;52.122;5.422;2023-07-13T08:13:36;9.85;;;4.93;;
80185;SDS011;69904;52.122;5.422;2023-07-13T08:16:04;13.18;;;5.75;;
80185;SDS011;69904;52.122;5.422;2023-07-13T08:18:32;12.45;;;5.40;;
80185;SDS011;69904;52.122;5.422;2023-07-13T08:21:05;10.13;;;5.03;;
80185;SDS011;69904;52.122;5.422;2023-07-13T08:23:32;8.48;;;4.82;;
80185;SDS011;69904;52.122;5.422;2023-07-13T08:26:00;7.97;;;4.15;;
80185;SDS011;69904;52.122;5.422;2023-07-13T08:28:30;10.15;;;4.63;;
80185;SDS011;69904;52.122;5.422;2023-07-13T08:31:05;10.27;;;4.05;;
80185;SDS011;69904;52.122;5.422;2023-07-13T08:33:34;9.98;;;4.32;;
80185;SDS011;69904;52.122;5.422;2023-07-13T08:36:02;9.43;;;4.05;;
80185;SDS011;69904;52.122;5.422;2023-07-13T08:38:29;6.85;;;4.05;;
80185;SDS011;69904;52.122;5.422;2023-07-13T08:40:56;11.77;;;3.95;;
80185;SDS011;69904;52.122;5.422;2023-07-13T08:43:27;4.95;;;2.83;;
80185;SDS011;69904;52.122;5.422;2023-07-13T08:46:02;5.32;;;2.60;;
80185;SDS011;69904;52.122;5.422;2023-07-13T08:48:45;5.10;;;2.60;;
80185;SDS011;69904;52.122;5.422;2023-07-13T08:51:26;7.45;;;2.70;;
80185;SDS011;69904;52.122;5.422;2023-07-13T08:53:57;4.07;;;1.77;;
80185;SDS011;69904;52.122;5.422;2023-07-13T08:56:28;2.40;;;1.10;;
80185;SDS011;69904;52.122;5.422;2023-07-13T08:58:57;3.63;;;1.73;;
80185;SDS011;69904;52.122;5.422;2023-07-13T09:01:31;2.28;;;1.10;;
80185;SDS011;69904;52.122;5.422;2023-07-13T09:04:06;5.03;;;1.75;;
80185;SDS011;69904;52.122;5.422;2023-07-13T09:12:15;4.30;;;1.33;;
80185;SDS011;69904;52.122;5.422;2023-07-13T09:14:50;6.13;;;2.03;;
80185;SDS011;69904;52.122;5.422;2023-07-13T09:17:30;5.40;;;1.70;;
80185;SDS011;69904;52.122;5.422;2023-07-13T09:22:47;2.88;;;1.58;;
80185;SDS011;69904;52.122;5.422;2023-07-13T09:25:23;7.60;;;2.63;;
80185;SDS011;69904;52.122;5.422;2023-07-13T09:28:00;6.90;;;2.05;;
80185;SDS011;69904;52.122;5.422;2023-07-13T09:30:37;4.88;;;1.50;;
80185;SDS011;69904;52.122;5.422;2023-07-13T09:33:27;6.05;;;1.45;;
80185;SDS011;69904;52.122;5.422;2023-07-13T09:35:56;2.78;;;1.45;;
80185;SDS011;69904;52.122;5.422;2023-07-13T09:38:27;4.97;;;2.03;;
80185;SDS011;69904;52.122;5.422;2023-07-13T09:46:57;5.05;;;1.70;;
80185;SDS011;69904;52.122;5.422;2023-07-13T09:49:24;4.75;;;1.42;;
80185;SDS011;69904;52.122;5.422;2023-07-13T09:51:57;4.97;;;1.45;;
80185;SDS011;69904;52.122;5.422;2023-07-13T09:54:26;2.35;;;1.17;;
80185;SDS011;69904;52.122;5.422;2023-07-13T09:59:21;5.40;;;2.08;;
80185;SDS011;69904;52.122;5.422;2023-07-13T10:01:50;3.20;;;1.83;;
80185;SDS011;69904;52.122;5.422;2023-07-13T10:04:17;4.07;;;1.60;;
80185;SDS011;69904;52.122;5.422;2023-07-13T10:06:48;4.78;;;1.50;;
80185;SDS011;69904;52.122;5.422;2023-07-13T10:09:56;3.50;;;1.70;;
80185;SDS011;69904;52.122;5.422;2023-07-13T10:12:25;4.15;;;1.67;;
80185;SDS011;69904;52.122;5.422;2023-07-13T10:14:56;3.42;;;1.65;;
80185;SDS011;69904;52.122;5.422;2023-07-13T10:17:42;4.03;;;1.85;;
80185;SDS011;69904;52.122;5.422;2023-07-13T10:20:10;4.25;;;1.50;;
80185;SDS011;69904;52.122;5.422;2023-07-13T10:22:42;6.82;;;1.90;;
80185;SDS011;69904;52.122;5.422;2023-07-13T10:25:21;4.20;;;1.75;;
80185;SDS011;69904;52.122;5.422;2023-07-13T10:27:51;3.63;;;1.60;;
80185;SDS011;69904;52.122;5.422;2023-07-13T10:30:27;3.95;;;1.70;;
80185;SDS011;69904;52.122;5.422;2023-07-13T10:33:03;3.17;;;1.50;;
80185;SDS011;69904;52.122;5.422;2023-07-13T10:35:37;3.55;;;2.00;;
80185;SDS011;69904;52.122;5.422;2023-07-13T10:38:10;8.43;;;1.88;;
80185;SDS011;69904;52.122;5.422;2023-07-13T10:40:41;4.47;;;1.77;;
80185;SDS011;69904;52.122;5.422;2023-07-13T10:43:22;4.18;;;2.10;;
80185;SDS011;69904;52.122;5.422;2023-07-13T10:45:53;3.25;;;1.77;;
80185;SDS011;69904;52.122;5.422;2023-07-13T10:48:20;2.42;;;1.27;;
80185;SDS011;69904;52.122;5.422;2023-07-13T10:50:50;4.07;;;1.50;;
80185;SDS011;69904;52.122;5.422;2023-07-13T10:53:29;2.92;;;1.67;;
80185;SDS011;69904;52.122;5.422;2023-07-13T10:55:58;2.90;;;1.15;;
80185;SDS011;69904;52.122;5.422;2023-07-13T10:58:37;2.47;;;1.15;;
80185;SDS011;69904;52.122;5.422;2023-07-13T11:06:12;2.92;;;1.50;;
80185;SDS011;69904;52.122;5.422;2023-07-13T11:18:51;2.17;;;1.27;;
80185;SDS011;69904;52.122;5.422;2023-07-13T11:21:20;2.13;;;1.00;;
80185;SDS011;69904;52.122;5.422;2023-07-13T11:32:10;6.63;;;1.70;;
80185;SDS011;69904;52.122;5.422;2023-07-13T11:34:48;4.15;;;1.42;;
80185;SDS011;69904;52.122;5.422;2023-07-13T11:37:16;3.17;;;1.40;;
80185;SDS011;69904;52.122;5.422;2023-07-13T11:39:45;4.57;;;1.60;;
80185;SDS011;69904;52.122;5.422;2023-07-13T11:42:15;3.58;;;1.42;;
80185;SDS011;69904;52.122;5.422;2023-07-13T11:44:44;4.60;;;1.92;;
80185;SDS011;69904;52.122;5.422;2023-07-13T11:47:34;5.72;;;1.80;;
80185;SDS011;69904;52.122;5.422;2023-07-13T11:50:01;3.63;;;1.50;;
80185;SDS011;69904;52.122;5.422;2023-07-13T11:52:35;3.22;;;1.60;;
80185;SDS011;69904;52.122;5.422;2023-07-13T11:55:04;4.85;;;1.60;;
80185;SDS011;69904;52.122;5.422;2023-07-13T11:57:44;6.43;;;2.05;;
80185;SDS011;69904;52.122;5.422;2023-07-13T12:00:17;2.90;;;1.75;;
80185;SDS011;69904;52.122;5.422;2023-07-13T12:02:47;3.78;;;1.65;;
80185;SDS011;69904;52.122;5.422;2023-07-13T12:05:18;5.20;;;1.80;;
80185;SDS011;69904;52.122;5.422;2023-07-13T12:07:46;4.35;;;1.65;;
80185;SDS011;69904;52.122;5.422;2023-07-13T12:12:46;7.25;;;2.20;;
80185;SDS011;69904;52.122;5.422;2023-07-13T12:15:23;4.75;;;1.50;;
80185;SDS011;69904;52.122;5.422;2023-07-13T12:17:54;3.40;;;1.80;;
80185;SDS011;69904;52.122;5.422;2023-07-13T12:20:26;4.35;;;1.85;;
80185;SDS011;69904;52.122;5.422;2023-07-13T12:22:56;4.13;;;1.95;;
80185;SDS011;69904;52.122;5.422;2023-07-13T12:25:23;4.22;;;1.90;;
80185;SDS011;69904;52.122;5.422;2023-07-13T12:27:50;6.85;;;2.08;;
80185;SDS011;69904;52.122;5.422;2023-07-13T12:30:30;5.10;;;2.17;;
80185;SDS011;69904;52.122;5.422;2023-07-13T12:33:06;5.05;;;2.00;;
80185;SDS011;69904;52.122;5.422;2023-07-13T12:35:41;3.75;;;1.70;;
80185;SDS011;69904;52.122;5.422;2023-07-13T12:38:12;4.68;;;1.90;;
80185;SDS011;69904;52.122;5.422;2023-07-13T12:40:39;3.92;;;1.77;;
80185;SDS011;69904;52.122;5.422;2023-07-13T12:43:10;4.63;;;1.80;;
80185;SDS011;69904;52.122;5.422;2023-07-13T12:48:42;3.55;;;1.70;;
80185;SDS011;69904;52.122;5.422;2023-07-13T12:51:20;3.15;;;1.27;;
80185;SDS011;69904;52.122;5.422;2023-07-13T12:53:49;5.57;;;1.70;;
80185;SDS011;69904;52.122;5.422;2023-07-13T12:56:24;1.85;;;1.23;;
80185;SDS011;69904;52.122;5.422;2023-07-13T12:58:58;4.85;;;1.50;;
80185;SDS011;69904;52.122;5.422;2023-07-13T13:01:28;2.60;;;1.55;;
80185;SDS011;69904;52.122;5.422;2023-07-13T13:04:00;3.63;;;1.55;;
80185;SDS011;69904;52.122;5.422;2023-07-13T13:06:33;5.13;;;1.55;;
80185;SDS011;69904;52.122;5.422;2023-07-13T13:09:02;3.13;;;1.45;;
80185;SDS011;69904;52.122;5.422;2023-07-13T13:11:31;6.00;;;1.63;;
80185;SDS011;69904;52.122;5.422;2023-07-13T13:13:58;3.80;;;1.45;;
80185;SDS011;69904;52.122;5.422;2023-07-13T13:19:19;4.35;;;1.58;;
80185;SDS011;69904;52.122;5.422;2023-07-13T13:21:54;4.40;;;1.55;;
80185;SDS011;69904;52.122;5.422;2023-07-13T13:24:24;4.25;;;1.65;;
80185;SDS011;69904;52.122;5.422;2023-07-13T13:26:53;2.85;;;1.30;;
80185;SDS011;69904;52.122;5.422;2023-07-13T13:29:23;5.53;;;1.38;;
80185;SDS011;69904;52.122;5.422;2023-07-13T13:31:51;4.60;;;1.40;;
80185;SDS011;69904;52.122;5.422;2023-07-13T13:34:19;2.35;;;1.30;;
80185;SDS011;69904;52.122;5.422;2023-07-13T13:36:49;3.45;;;1.38;;
80185;SDS011;69904;52.122;5.422;2023-07-13T13:41:50;3.58;;;1.42;;
80185;SDS011;69904;52.122;5.422;2023-07-13T13:44:18;2.22;;;1.08;;
80185;SDS011;69904;52.122;5.422;2023-07-13T13:46:47;2.40;;;1.10;;
80185;SDS011;69904;52.122;5.422;2023-07-13T13:49:18;3.72;;;1.38;;
80185;SDS011;69904;52.122;5.422;2023-07-13T13:51:50;4.68;;;1.77;;
80185;SDS011;69904;52.122;5.422;2023-07-13T13:54:21;2.13;;;1.40;;
80185;SDS011;69904;52.122;5.422;2023-07-13T13:56:50;2.67;;;1.35;;
80185;SDS011;69904;52.122;5.422;2023-07-13T13:59:21;4.38;;;1.40;;
80185;SDS011;69904;52.122;5.422;2023-07-13T14:01:49;5.53;;;1.88;;
80185;SDS011;69904;52.122;5.422;2023-07-13T14:04:18;4.18;;;1.25;;
80185;SDS011;69904;52.122;5.422;2023-07-13T14:06:47;3.95;;;1.42;;
80185;SDS011;69904;52.122;5.422;2023-07-13T14:09:18;3.58;;;1.52;;
80185;SDS011;69904;52.122;5.422;2023-07-13T14:11:51;3.50;;;1.42;;
80185;SDS011;69904;52.122;5.422;2023-07-13T14:14:22;3.65;;;1.77;;
80185;SDS011;69904;52.122;5.422;2023-07-13T14:16:52;5.30;;;1.50;;
80185;SDS011;69904;52.122;5.422;2023-07-13T14:19:25;3.33;;;1.70;;
80185;SDS011;69904;52.122;5.422;2023-07-13T14:21:53;3.15;;;1.40;;
80185;SDS011;69904;52.122;5.422;2023-07-13T14:24:24;2.78;;;1.50;;
80185;SDS011;69904;52.122;5.422;2023-07-13T14:26:54;3.15;;;1.50;;
80185;SDS011;69904;52.122;5.422;2023-07-13T14:29:27;3.08;;;1.40;;
80185;SDS011;69904;52.122;5.422;2023-07-13T14:31:59;3.83;;;1.30;;
80185;SDS011;69904;52.122;5.422;2023-07-13T14:34:26;3.80;;;1.30;;
80185;SDS011;69904;52.122;5.422;2023-07-13T14:36:54;5.03;;;1.38;;
80185;SDS011;69904;52.122;5.422;2023-07-13T14:39:29;4.45;;;1.42;;
80185;SDS011;69904;52.122;5.422;2023-07-13T14:41:57;4.38;;;1.33;;
80185;SDS011;69904;52.122;5.422;2023-07-13T14:44:25;3.10;;;1.30;;
80185;SDS011;69904;52.122;5.422;2023-07-13T14:46:56;3.25;;;1.40;;
80185;SDS011;69904;52.122;5.422;2023-07-13T14:49:31;2.45;;;1.33;;
80185;SDS011;69904;52.122;5.422;2023-07-13T14:52:02;4.38;;;1.10;;
80185;SDS011;69904;52.122;5.422;2023-07-13T14:54:37;3.97;;;1.30;;
80185;SDS011;69904;52.122;5.422;2023-07-13T14:57:13;4.22;;;1.33;;
80185;SDS011;69904;52.122;5.422;2023-07-13T14:59:45;3.75;;;1.30;;
80185;SDS011;69904;52.122;5.422;2023-07-13T15:05:00;5.00;;;1.30;;
80185;SDS011;69904;52.122;5.422;2023-07-13T15:07:28;3.42;;;1.10;;
80185;SDS011;69904;52.122;5.422;2023-07-13T15:09:54;4.15;;;1.50;;
80185;SDS011;69904;52.122;5.422;2023-07-13T15:12:21;3.72;;;1.40;;
80185;SDS011;69904;52.122;5.422;2023-07-13T15:14:47;7.45;;;1.90;;
80185;SDS011;69904;52.122;5.422;2023-07-13T15:17:31;4.63;;;1.38;;
80185;SDS011;69904;52.122;5.422;2023-07-13T15:20:15;3.17;;;1.30;;
80185;SDS011;69904;52.122;5.422;2023-07-13T15:22:46;2.47;;;1.10;;
80185;SDS011;69904;52.122;5.422;2023-07-13T15:25:22;3.65;;;1.48;;
80185;SDS011;69904;52.122;5.422;2023-07-13T15:27:55;3.33;;;1.33;;
80185;SDS011;69904;52.122;5.422;2023-07-13T15:30:47;8.45;;;2.15;;
80185;SDS011;69904;52.122;5.422;2023-07-13T15:33:15;4.50;;;1.40;;
80185;SDS011;69904;52.122;5.422;2023-07-13T15:35:45;4.78;;;1.80;;
80185;SDS011;69904;52.122;5.422;2023-07-13T15:38:18;3.38;;;1.40;;
80185;SDS011;69904;52.122;5.422;2023-07-13T15:40:47;3.35;;;1.13;;
80185;SDS011;69904;52.122;5.422;2023-07-13T15:43:15;2.78;;;0.90;;
80185;SDS011;69904;52.122;5.422;2023-07-13T15:45:43;3.70;;;1.52;;
80185;SDS011;69904;52.122;5.422;2023-07-13T15:48:22;5.07;;;1.38;;
80185;SDS011;69904;52.122;5.422;2023-07-13T15:50:51;3.92;;;1.17;;
80185;SDS011;69904;52.122;5.422;2023-07-13T15:53:24;3.25;;;1.10;;
80185;SDS011;69904;52.122;5.422;2023-07-13T15:55:54;1.80;;;1.13;;
80185;SDS011;69904;52.122;5.422;2023-07-13T15:58:21;3.80;;;1.10;;
80185;SDS011;69904;52.122;5.422;2023-07-13T16:00:48;8.40;;;3.80;;
80185;SDS011;69904;52.122;5.422;2023-07-13T16:03:18;4.70;;;1.50;;
80185;SDS011;69904;52.122;5.422;2023-07-13T16:05:47;4.78;;;1.17;;
80185;SDS011;69904;52.122;5.422;2023-07-13T16:08:20;5.32;;;1.33;;
80185;SDS011;69904;52.122;5.422;2023-07-13T16:10:51;1.48;;;0.75;;
80185;SDS011;69904;52.122;5.422;2023-07-13T16:13:19;4.13;;;1.08;;
80185;SDS011;69904;52.122;5.422;2023-07-13T16:15:47;2.97;;;1.20;;
80185;SDS011;69904;52.122;5.422;2023-07-13T16:18:14;3.45;;;1.00;;
80185;SDS011;69904;52.122;5.422;2023-07-13T16:20:45;3.75;;;1.10;;
80185;SDS011;69904;52.122;5.422;2023-07-13T16:23:14;3.65;;;1.15;;
80185;SDS011;69904;52.122;5.422;2023-07-13T16:25:43;2.30;;;0.90;;
80185;SDS011;69904;52.122;5.422;2023-07-13T16:28:11;2.45;;;0.93;;